Aviation Digital Data Service (ADDS)

Output produced by METARs form (0422 UTC 19 January 2017)
found at http://aviationweather.gov/adds/metars/
 
KMBS 190222Z 1902/1924 23010KT 4SM BR OVC007 
     FM190900 22007KT 2SM BR OVC004 
     FM191400 20006KT 5SM BR BKN006 OVC015 
     FM191800 18006KT P6SM BKN015 
     FM192200 12005KT P6SM SCT015